sensor_id;sensor_type;location;lat;lon;timestamp;P1;durP1;ratioP1;P2;durP2;ratioP2
1206;SDS011;593;53.184;8.216;2023-07-13T00:02:03;2.20;;;2.10;;
1206;SDS011;593;53.184;8.216;2023-07-13T00:04:29;2.77;;;2.57;;
1206;SDS011;593;53.184;8.216;2023-07-13T00:06:54;2.17;;;2.07;;
1206;SDS011;593;53.184;8.216;2023-07-13T00:09:20;3.30;;;3.00;;
1206;SDS011;593;53.184;8.216;2023-07-13T00:11:50;3.27;;;3.00;;
1206;SDS011;593;53.184;8.216;2023-07-13T00:14:18;2.60;;;2.03;;
1206;SDS011;593;53.184;8.216;2023-07-13T00:16:43;3.97;;;2.50;;
1206;SDS011;593;53.184;8.216;2023-07-13T00:19:09;3.67;;;3.40;;
1206;SDS011;593;53.184;8.216;2023-07-13T00:21:36;2.77;;;2.57;;
1206;SDS011;593;53.184;8.216;2023-07-13T00:24:02;2.80;;;2.60;;
1206;SDS011;593;53.184;8.216;2023-07-13T00:26:27;2.37;;;2.17;;
1206;SDS011;593;53.184;8.216;2023-07-13T00:28:53;4.20;;;2.90;;
1206;SDS011;593;53.184;8.216;2023-07-13T00:31:18;3.33;;;2.13;;
1206;SDS011;593;53.184;8.216;2023-07-13T00:33:44;2.70;;;2.50;;
1206;SDS011;593;53.184;8.216;2023-07-13T00:36:09;2.63;;;2.43;;
1206;SDS011;593;53.184;8.216;2023-07-13T00:38:35;2.63;;;2.43;;
1206;SDS011;593;53.184;8.216;2023-07-13T00:41:02;3.37;;;3.07;;
1206;SDS011;593;53.184;8.216;2023-07-13T00:43:28;3.50;;;3.13;;
1206;SDS011;593;53.184;8.216;2023-07-13T00:48:24;2.77;;;2.57;;
1206;SDS011;593;53.184;8.216;2023-07-13T00:50:53;2.87;;;2.67;;
1206;SDS011;593;53.184;8.216;2023-07-13T00:53:21;4.80;;;2.90;;
1206;SDS011;593;53.184;8.216;2023-07-13T00:55:48;5.77;;;2.83;;
1206;SDS011;593;53.184;8.216;2023-07-13T00:58:15;3.13;;;2.53;;
1206;SDS011;593;53.184;8.216;2023-07-13T01:00:40;3.93;;;2.50;;
1206;SDS011;593;53.184;8.216;2023-07-13T01:03:06;3.33;;;2.40;;
1206;SDS011;593;53.184;8.216;2023-07-13T01:05:32;4.57;;;2.77;;
1206;SDS011;593;53.184;8.216;2023-07-13T01:07:59;3.03;;;2.67;;
1206;SDS011;593;53.184;8.216;2023-07-13T01:10:26;4.43;;;2.50;;
1206;SDS011;593;53.184;8.216;2023-07-13T01:12:52;2.27;;;2.07;;
1206;SDS011;593;53.184;8.216;2023-07-13T01:18:02;4.17;;;2.43;;
1206;SDS011;593;53.184;8.216;2023-07-13T01:20:29;2.33;;;2.13;;
1206;SDS011;593;53.184;8.216;2023-07-13T01:22:54;6.57;;;2.43;;
1206;SDS011;593;53.184;8.216;2023-07-13T01:25:20;6.20;;;2.50;;
1206;SDS011;593;53.184;8.216;2023-07-13T01:27:46;2.10;;;2.00;;
1206;SDS011;593;53.184;8.216;2023-07-13T01:30:11;2.43;;;2.10;;
1206;SDS011;593;53.184;8.216;2023-07-13T01:32:36;3.57;;;2.33;;
1206;SDS011;593;53.184;8.216;2023-07-13T01:35:02;2.50;;;2.27;;
1206;SDS011;593;53.184;8.216;2023-07-13T01:37:27;3.00;;;2.03;;
1206;SDS011;593;53.184;8.216;2023-07-13T01:40:01;2.83;;;1.97;;
1206;SDS011;593;53.184;8.216;2023-07-13T01:42:28;6.80;;;2.63;;
1206;SDS011;593;53.184;8.216;2023-07-13T01:44:53;5.40;;;1.87;;
1206;SDS011;593;53.184;8.216;2023-07-13T01:47:19;2.70;;;2.20;;
1206;SDS011;593;53.184;8.216;2023-07-13T01:49:44;1.73;;;1.63;;
1206;SDS011;593;53.184;8.216;2023-07-13T01:52:11;2.80;;;2.07;;
1206;SDS011;593;53.184;8.216;2023-07-13T01:54:36;3.43;;;1.67;;
1206;SDS011;593;53.184;8.216;2023-07-13T01:57:01;2.17;;;1.60;;
1206;SDS011;593;53.184;8.216;2023-07-13T01:59:28;6.73;;;2.20;;
1206;SDS011;593;53.184;8.216;2023-07-13T02:01:53;2.00;;;1.60;;
1206;SDS011;593;53.184;8.216;2023-07-13T02:04:18;2.30;;;1.60;;
1206;SDS011;593;53.184;8.216;2023-07-13T02:06:43;3.57;;;2.47;;
1206;SDS011;593;53.184;8.216;2023-07-13T02:09:09;4.53;;;1.53;;
1206;SDS011;593;53.184;8.216;2023-07-13T02:11:35;2.60;;;1.90;;
1206;SDS011;593;53.184;8.216;2023-07-13T02:14:00;3.63;;;2.00;;
1206;SDS011;593;53.184;8.216;2023-07-13T02:16:27;2.83;;;2.10;;
1206;SDS011;593;53.184;8.216;2023-07-13T02:18:52;4.33;;;2.10;;
1206;SDS011;593;53.184;8.216;2023-07-13T02:21:18;6.00;;;2.20;;
1206;SDS011;593;53.184;8.216;2023-07-13T02:23:43;6.00;;;2.27;;
1206;SDS011;593;53.184;8.216;2023-07-13T02:26:08;3.63;;;2.07;;
1206;SDS011;593;53.184;8.216;2023-07-13T02:28:34;3.23;;;1.83;;
1206;SDS011;593;53.184;8.216;2023-07-13T02:31:09;3.73;;;2.40;;
1206;SDS011;593;53.184;8.216;2023-07-13T02:33:36;3.13;;;1.97;;
1206;SDS011;593;53.184;8.216;2023-07-13T02:36:02;5.83;;;2.73;;
1206;SDS011;593;53.184;8.216;2023-07-13T02:38:28;5.63;;;2.70;;
1206;SDS011;593;53.184;8.216;2023-07-13T02:40:53;3.27;;;2.40;;
1206;SDS011;593;53.184;8.216;2023-07-13T02:43:19;2.07;;;1.83;;
1206;SDS011;593;53.184;8.216;2023-07-13T02:45:44;4.23;;;2.40;;
1206;SDS011;593;53.184;8.216;2023-07-13T02:48:10;3.30;;;2.47;;
1206;SDS011;593;53.184;8.216;2023-07-13T02:50:36;2.50;;;2.07;;
1206;SDS011;593;53.184;8.216;2023-07-13T02:53:01;2.30;;;2.10;;
1206;SDS011;593;53.184;8.216;2023-07-13T02:55:26;2.70;;;2.03;;
1206;SDS011;593;53.184;8.216;2023-07-13T02:57:52;2.67;;;2.47;;
1206;SDS011;593;53.184;8.216;2023-07-13T03:00:17;2.73;;;1.63;;
1206;SDS011;593;53.184;8.216;2023-07-13T03:02:43;3.27;;;2.53;;
1206;SDS011;593;53.184;8.216;2023-07-13T03:05:08;2.90;;;2.53;;
1206;SDS011;593;53.184;8.216;2023-07-13T03:07:37;3.83;;;2.90;;
1206;SDS011;593;53.184;8.216;2023-07-13T03:10:03;2.53;;;2.20;;
1206;SDS011;593;53.184;8.216;2023-07-13T03:12:29;4.50;;;2.50;;
1206;SDS011;593;53.184;8.216;2023-07-13T03:14:54;6.43;;;2.40;;
1206;SDS011;593;53.184;8.216;2023-07-13T03:17:20;4.97;;;1.90;;
1206;SDS011;593;53.184;8.216;2023-07-13T03:19:45;3.40;;;2.53;;
1206;SDS011;593;53.184;8.216;2023-07-13T03:22:14;2.63;;;2.30;;
1206;SDS011;593;53.184;8.216;2023-07-13T03:24:39;3.30;;;2.20;;
1206;SDS011;593;53.184;8.216;2023-07-13T03:27:05;3.17;;;1.50;;
1206;SDS011;593;53.184;8.216;2023-07-13T03:29:30;4.03;;;2.60;;
1206;SDS011;593;53.184;8.216;2023-07-13T03:31:56;5.03;;;2.17;;
1206;SDS011;593;53.184;8.216;2023-07-13T03:34:21;3.03;;;2.27;;
1206;SDS011;593;53.184;8.216;2023-07-13T03:36:46;4.10;;;2.20;;
1206;SDS011;593;53.184;8.216;2023-07-13T03:39:12;2.33;;;2.13;;
1206;SDS011;593;53.184;8.216;2023-07-13T03:41:37;2.37;;;2.10;;
1206;SDS011;593;53.184;8.216;2023-07-13T03:44:03;4.20;;;2.23;;
1206;SDS011;593;53.184;8.216;2023-07-13T03:46:28;9.53;;;2.07;;
1206;SDS011;593;53.184;8.216;2023-07-13T03:48:53;3.47;;;1.97;;
1206;SDS011;593;53.184;8.216;2023-07-13T03:51:19;4.13;;;1.80;;
1206;SDS011;593;53.184;8.216;2023-07-13T03:53:45;5.00;;;2.20;;
1206;SDS011;593;53.184;8.216;2023-07-13T03:56:12;5.50;;;2.23;;
1206;SDS011;593;53.184;8.216;2023-07-13T03:58:40;4.20;;;2.40;;
1206;SDS011;593;53.184;8.216;2023-07-13T04:01:08;6.67;;;1.93;;
1206;SDS011;593;53.184;8.216;2023-07-13T04:03:35;2.40;;;1.90;;
1206;SDS011;593;53.184;8.216;2023-07-13T04:06:02;2.33;;;1.97;;
1206;SDS011;593;53.184;8.216;2023-07-13T04:08:29;4.80;;;2.03;;
1206;SDS011;593;53.184;8.216;2023-07-13T04:10:56;2.70;;;1.63;;
1206;SDS011;593;53.184;8.216;2023-07-13T04:13:23;4.87;;;2.20;;
1206;SDS011;593;53.184;8.216;2023-07-13T04:15:49;4.00;;;1.90;;
1206;SDS011;593;53.184;8.216;2023-07-13T04:18:14;6.00;;;2.27;;
1206;SDS011;593;53.184;8.216;2023-07-13T04:20:40;4.93;;;2.03;;
1206;SDS011;593;53.184;8.216;2023-07-13T04:23:05;2.87;;;2.20;;
1206;SDS011;593;53.184;8.216;2023-07-13T04:25:30;8.53;;;2.00;;
1206;SDS011;593;53.184;8.216;2023-07-13T04:27:56;3.30;;;1.50;;
1206;SDS011;593;53.184;8.216;2023-07-13T04:30:21;4.60;;;1.73;;
1206;SDS011;593;53.184;8.216;2023-07-13T04:32:47;3.10;;;1.90;;
1206;SDS011;593;53.184;8.216;2023-07-13T04:35:13;3.53;;;1.83;;
1206;SDS011;593;53.184;8.216;2023-07-13T04:37:39;7.60;;;2.00;;
1206;SDS011;593;53.184;8.216;2023-07-13T04:40:05;3.10;;;1.70;;
1206;SDS011;593;53.184;8.216;2023-07-13T04:42:31;4.70;;;1.80;;
1206;SDS011;593;53.184;8.216;2023-07-13T04:44:56;4.03;;;2.10;;
1206;SDS011;593;53.184;8.216;2023-07-13T04:47:22;9.97;;;2.33;;
1206;SDS011;593;53.184;8.216;2023-07-13T04:49:47;2.43;;;1.50;;
1206;SDS011;593;53.184;8.216;2023-07-13T04:52:13;6.10;;;2.10;;
1206;SDS011;593;53.184;8.216;2023-07-13T04:54:38;3.43;;;1.90;;
1206;SDS011;593;53.184;8.216;2023-07-13T04:57:04;1.40;;;1.30;;
1206;SDS011;593;53.184;8.216;2023-07-13T04:59:33;3.90;;;1.40;;
1206;SDS011;593;53.184;8.216;2023-07-13T05:01:59;1.90;;;1.50;;
1206;SDS011;593;53.184;8.216;2023-07-13T05:04:24;4.77;;;1.67;;
1206;SDS011;593;53.184;8.216;2023-07-13T05:06:49;6.00;;;1.93;;
1206;SDS011;593;53.184;8.216;2023-07-13T05:09:15;3.40;;;1.80;;
1206;SDS011;593;53.184;8.216;2023-07-13T05:11:40;4.70;;;2.20;;
1206;SDS011;593;53.184;8.216;2023-07-13T05:14:06;4.20;;;2.17;;
1206;SDS011;593;53.184;8.216;2023-07-13T05:16:31;6.50;;;1.90;;
1206;SDS011;593;53.184;8.216;2023-07-13T05:18:57;3.30;;;1.50;;
1206;SDS011;593;53.184;8.216;2023-07-13T05:21:23;2.60;;;1.53;;
1206;SDS011;593;53.184;8.216;2023-07-13T05:23:48;3.50;;;1.80;;
1206;SDS011;593;53.184;8.216;2023-07-13T05:26:15;4.77;;;2.07;;
1206;SDS011;593;53.184;8.216;2023-07-13T05:28:40;4.40;;;1.87;;
1206;SDS011;593;53.184;8.216;2023-07-13T05:31:07;3.83;;;1.83;;
1206;SDS011;593;53.184;8.216;2023-07-13T05:33:33;1.70;;;1.60;;
1206;SDS011;593;53.184;8.216;2023-07-13T05:35:59;4.60;;;1.50;;
1206;SDS011;593;53.184;8.216;2023-07-13T05:38:25;6.40;;;2.43;;
1206;SDS011;593;53.184;8.216;2023-07-13T05:40:53;3.83;;;1.50;;
1206;SDS011;593;53.184;8.216;2023-07-13T05:43:19;3.27;;;1.77;;
1206;SDS011;593;53.184;8.216;2023-07-13T05:45:44;5.50;;;1.90;;
1206;SDS011;593;53.184;8.216;2023-07-13T05:48:09;4.40;;;1.93;;
1206;SDS011;593;53.184;8.216;2023-07-13T05:50:35;3.07;;;1.73;;
1206;SDS011;593;53.184;8.216;2023-07-13T05:53:00;3.63;;;2.00;;
1206;SDS011;593;53.184;8.216;2023-07-13T05:55:25;2.37;;;1.83;;
1206;SDS011;593;53.184;8.216;2023-07-13T05:57:50;7.17;;;2.20;;
1206;SDS011;593;53.184;8.216;2023-07-13T06:00:16;2.93;;;2.03;;
1206;SDS011;593;53.184;8.216;2023-07-13T06:02:42;3.43;;;2.00;;
1206;SDS011;593;53.184;8.216;2023-07-13T06:05:07;4.80;;;1.70;;
1206;SDS011;593;53.184;8.216;2023-07-13T06:07:33;7.10;;;2.30;;
1206;SDS011;593;53.184;8.216;2023-07-13T06:09:58;4.40;;;2.03;;
1206;SDS011;593;53.184;8.216;2023-07-13T06:12:24;6.20;;;2.13;;
1206;SDS011;593;53.184;8.216;2023-07-13T06:14:50;3.90;;;2.43;;
1206;SDS011;593;53.184;8.216;2023-07-13T06:17:15;3.30;;;1.90;;
1206;SDS011;593;53.184;8.216;2023-07-13T06:19:40;5.00;;;2.60;;
1206;SDS011;593;53.184;8.216;2023-07-13T06:22:06;3.73;;;2.47;;
1206;SDS011;593;53.184;8.216;2023-07-13T06:24:31;6.07;;;2.50;;
1206;SDS011;593;53.184;8.216;2023-07-13T06:26:57;4.80;;;2.37;;
1206;SDS011;593;53.184;8.216;2023-07-13T06:29:22;7.37;;;2.13;;
1206;SDS011;593;53.184;8.216;2023-07-13T06:31:47;6.57;;;2.03;;
1206;SDS011;593;53.184;8.216;2023-07-13T06:34:12;4.20;;;2.30;;
1206;SDS011;593;53.184;8.216;2023-07-13T06:36:38;4.00;;;2.03;;
1206;SDS011;593;53.184;8.216;2023-07-13T06:39:03;7.03;;;2.33;;
1206;SDS011;593;53.184;8.216;2023-07-13T06:41:29;4.07;;;2.60;;
1206;SDS011;593;53.184;8.216;2023-07-13T06:43:55;7.17;;;2.47;;
1206;SDS011;593;53.184;8.216;2023-07-13T06:46:21;5.13;;;2.37;;
1206;SDS011;593;53.184;8.216;2023-07-13T06:48:47;4.87;;;2.13;;
1206;SDS011;593;53.184;8.216;2023-07-13T06:51:13;6.37;;;2.33;;
1206;SDS011;593;53.184;8.216;2023-07-13T06:53:39;6.73;;;2.70;;
1206;SDS011;593;53.184;8.216;2023-07-13T06:56:04;4.40;;;2.83;;
1206;SDS011;593;53.184;8.216;2023-07-13T06:58:30;3.77;;;2.20;;
1206;SDS011;593;53.184;8.216;2023-07-13T07:00:55;8.97;;;3.03;;
1206;SDS011;593;53.184;8.216;2023-07-13T07:03:20;7.60;;;2.50;;
1206;SDS011;593;53.184;8.216;2023-07-13T07:05:46;5.73;;;2.57;;
1206;SDS011;593;53.184;8.216;2023-07-13T07:08:11;3.77;;;2.40;;
1206;SDS011;593;53.184;8.216;2023-07-13T07:10:36;5.40;;;2.50;;
1206;SDS011;593;53.184;8.216;2023-07-13T07:13:02;4.93;;;2.63;;
1206;SDS011;593;53.184;8.216;2023-07-13T07:15:28;6.50;;;2.50;;
1206;SDS011;593;53.184;8.216;2023-07-13T07:17:54;4.43;;;3.40;;
1206;SDS011;593;53.184;8.216;2023-07-13T07:20:19;5.80;;;2.27;;
1206;SDS011;593;53.184;8.216;2023-07-13T07:22:45;5.10;;;2.70;;
1206;SDS011;593;53.184;8.216;2023-07-13T07:25:11;4.67;;;2.50;;
1206;SDS011;593;53.184;8.216;2023-07-13T07:27:37;3.37;;;2.73;;
1206;SDS011;593;53.184;8.216;2023-07-13T07:30:02;5.33;;;2.27;;
1206;SDS011;593;53.184;8.216;2023-07-13T07:32:28;3.20;;;2.73;;
1206;SDS011;593;53.184;8.216;2023-07-13T07:34:55;3.30;;;3.00;;
1206;SDS011;593;53.184;8.216;2023-07-13T07:37:20;4.03;;;2.63;;
1206;SDS011;593;53.184;8.216;2023-07-13T07:39:46;6.27;;;2.60;;
1206;SDS011;593;53.184;8.216;2023-07-13T07:42:11;8.00;;;3.47;;
1206;SDS011;593;53.184;8.216;2023-07-13T07:44:37;5.40;;;2.40;;
1206;SDS011;593;53.184;8.216;2023-07-13T07:47:03;4.17;;;2.97;;
1206;SDS011;593;53.184;8.216;2023-07-13T07:49:28;5.13;;;2.60;;
1206;SDS011;593;53.184;8.216;2023-07-13T07:51:54;3.07;;;2.60;;
1206;SDS011;593;53.184;8.216;2023-07-13T07:54:19;6.70;;;2.43;;
1206;SDS011;593;53.184;8.216;2023-07-13T07:56:44;3.93;;;2.70;;
1206;SDS011;593;53.184;8.216;2023-07-13T07:59:10;5.87;;;2.67;;
1206;SDS011;593;53.184;8.216;2023-07-13T08:01:35;4.17;;;2.60;;
1206;SDS011;593;53.184;8.216;2023-07-13T08:04:01;3.10;;;2.60;;
1206;SDS011;593;53.184;8.216;2023-07-13T08:06:26;6.57;;;2.77;;
1206;SDS011;593;53.184;8.216;2023-07-13T08:08:52;3.23;;;1.97;;
1206;SDS011;593;53.184;8.216;2023-07-13T08:11:17;6.17;;;2.33;;
1206;SDS011;593;53.184;8.216;2023-07-13T08:13:43;4.87;;;2.60;;
1206;SDS011;593;53.184;8.216;2023-07-13T08:16:08;9.27;;;2.87;;
1206;SDS011;593;53.184;8.216;2023-07-13T08:18:34;4.13;;;2.13;;
1206;SDS011;593;53.184;8.216;2023-07-13T08:21:03;3.00;;;2.53;;
1206;SDS011;593;53.184;8.216;2023-07-13T08:23:29;2.40;;;1.57;;
1206;SDS011;593;53.184;8.216;2023-07-13T08:25:55;4.40;;;2.80;;
1206;SDS011;593;53.184;8.216;2023-07-13T08:28:20;3.00;;;2.00;;
1206;SDS011;593;53.184;8.216;2023-07-13T08:30:46;2.93;;;1.97;;
1206;SDS011;593;53.184;8.216;2023-07-13T08:33:15;2.13;;;1.57;;
1206;SDS011;593;53.184;8.216;2023-07-13T08:35:41;4.17;;;1.73;;
1206;SDS011;593;53.184;8.216;2023-07-13T08:38:06;1.90;;;1.70;;
1206;SDS011;593;53.184;8.216;2023-07-13T08:40:31;4.40;;;1.40;;
1206;SDS011;593;53.184;8.216;2023-07-13T08:42:59;4.93;;;2.00;;
1206;SDS011;593;53.184;8.216;2023-07-13T08:48:56;2.23;;;1.57;;
1206;SDS011;593;53.184;8.216;2023-07-13T08:54:27;3.27;;;1.50;;
1206;SDS011;593;53.184;8.216;2023-07-13T08:56:56;3.13;;;1.50;;
1206;SDS011;593;53.184;8.216;2023-07-13T08:59:27;1.67;;;1.37;;
1206;SDS011;593;53.184;8.216;2023-07-13T09:04:41;4.13;;;1.40;;
1206;SDS011;593;53.184;8.216;2023-07-13T09:10:11;3.67;;;1.47;;
1206;SDS011;593;53.184;8.216;2023-07-13T09:15:34;1.33;;;1.00;;
1206;SDS011;593;53.184;8.216;2023-07-13T09:18:05;3.57;;;1.80;;
1206;SDS011;593;53.184;8.216;2023-07-13T09:23:34;2.40;;;1.50;;
1206;SDS011;593;53.184;8.216;2023-07-13T09:26:02;2.10;;;1.40;;
1206;SDS011;593;53.184;8.216;2023-07-13T09:28:34;2.40;;;1.67;;
1206;SDS011;593;53.184;8.216;2023-07-13T09:33:38;2.83;;;1.77;;
1206;SDS011;593;53.184;8.216;2023-07-13T09:36:46;2.40;;;1.57;;
1206;SDS011;593;53.184;8.216;2023-07-13T09:44:12;2.87;;;2.03;;
1206;SDS011;593;53.184;8.216;2023-07-13T09:46:44;1.53;;;1.43;;
1206;SDS011;593;53.184;8.216;2023-07-13T09:49:11;1.63;;;1.50;;
1206;SDS011;593;53.184;8.216;2023-07-13T09:51:40;3.43;;;1.60;;
1206;SDS011;593;53.184;8.216;2023-07-13T09:54:17;2.97;;;1.70;;
1206;SDS011;593;53.184;8.216;2023-07-13T09:56:43;2.07;;;1.60;;
1206;SDS011;593;53.184;8.216;2023-07-13T09:59:19;2.33;;;1.50;;
1206;SDS011;593;53.184;8.216;2023-07-13T10:01:46;2.23;;;1.87;;
1206;SDS011;593;53.184;8.216;2023-07-13T10:04:13;3.37;;;1.20;;
1206;SDS011;593;53.184;8.216;2023-07-13T10:06:43;2.23;;;1.70;;
1206;SDS011;593;53.184;8.216;2023-07-13T10:09:13;1.30;;;1.20;;
1206;SDS011;593;53.184;8.216;2023-07-13T10:11:41;3.00;;;2.10;;
1206;SDS011;593;53.184;8.216;2023-07-13T10:14:17;1.90;;;1.43;;
1206;SDS011;593;53.184;8.216;2023-07-13T10:16:45;2.03;;;1.50;;
1206;SDS011;593;53.184;8.216;2023-07-13T10:19:25;2.50;;;1.50;;
1206;SDS011;593;53.184;8.216;2023-07-13T10:21:53;2.00;;;1.70;;
1206;SDS011;593;53.184;8.216;2023-07-13T10:24:28;2.83;;;1.60;;
1206;SDS011;593;53.184;8.216;2023-07-13T10:29:39;1.93;;;1.63;;
1206;SDS011;593;53.184;8.216;2023-07-13T10:32:11;1.57;;;1.40;;
1206;SDS011;593;53.184;8.216;2023-07-13T10:34:37;2.27;;;1.40;;
1206;SDS011;593;53.184;8.216;2023-07-13T10:37:05;2.10;;;1.67;;
1206;SDS011;593;53.184;8.216;2023-07-13T10:39:32;1.50;;;1.20;;
1206;SDS011;593;53.184;8.216;2023-07-13T10:42:00;1.40;;;1.30;;
1206;SDS011;593;53.184;8.216;2023-07-13T10:44:30;2.40;;;1.13;;
1206;SDS011;593;53.184;8.216;2023-07-13T10:47:07;1.10;;;1.00;;
1206;SDS011;593;53.184;8.216;2023-07-13T10:49:37;2.03;;;1.43;;
1206;SDS011;593;53.184;8.216;2023-07-13T10:52:04;6.07;;;1.27;;
1206;SDS011;593;53.184;8.216;2023-07-13T10:54:31;1.60;;;1.50;;
1206;SDS011;593;53.184;8.216;2023-07-13T10:57:08;3.73;;;1.40;;
1206;SDS011;593;53.184;8.216;2023-07-13T10:59:41;1.50;;;1.40;;
1206;SDS011;593;53.184;8.216;2023-07-13T11:02:13;1.20;;;1.10;;
1206;SDS011;593;53.184;8.216;2023-07-13T11:04:47;1.40;;;1.30;;
1206;SDS011;593;53.184;8.216;2023-07-13T11:07:22;1.40;;;0.90;;
1206;SDS011;593;53.184;8.216;2023-07-13T11:09:51;1.90;;;1.00;;
1206;SDS011;593;53.184;8.216;2023-07-13T11:20:23;0.80;;;0.80;;
1206;SDS011;593;53.184;8.216;2023-07-13T11:23:08;1.07;;;0.70;;
1206;SDS011;593;53.184;8.216;2023-07-13T11:25:42;0.80;;;0.80;;
1206;SDS011;593;53.184;8.216;2023-07-13T11:36:06;0.90;;;0.90;;
1206;SDS011;593;53.184;8.216;2023-07-13T11:41:21;0.80;;;0.60;;
1206;SDS011;593;53.184;8.216;2023-07-13T11:43:50;0.70;;;0.60;;
1206;SDS011;593;53.184;8.216;2023-07-13T11:46:22;0.70;;;0.63;;
1206;SDS011;593;53.184;8.216;2023-07-13T11:48:49;2.40;;;1.00;;
1206;SDS011;593;53.184;8.216;2023-07-13T11:51:20;1.93;;;0.80;;
1206;SDS011;593;53.184;8.216;2023-07-13T11:53:48;1.43;;;0.70;;
1206;SDS011;593;53.184;8.216;2023-07-13T11:56:15;1.97;;;1.37;;
1206;SDS011;593;53.184;8.216;2023-07-13T11:58:41;0.90;;;0.80;;
1206;SDS011;593;53.184;8.216;2023-07-13T12:01:10;1.30;;;1.00;;
1206;SDS011;593;53.184;8.216;2023-07-13T12:03:43;1.17;;;1.03;;
1206;SDS011;593;53.184;8.216;2023-07-13T12:06:25;0.83;;;0.80;;
1206;SDS011;593;53.184;8.216;2023-07-13T12:08:55;1.27;;;0.83;;
1206;SDS011;593;53.184;8.216;2023-07-13T12:11:22;3.20;;;1.27;;
1206;SDS011;593;53.184;8.216;2023-07-13T12:13:47;1.10;;;1.00;;
1206;SDS011;593;53.184;8.216;2023-07-13T12:16:36;1.37;;;1.00;;
1206;SDS011;593;53.184;8.216;2023-07-13T12:19:02;1.17;;;0.90;;
1206;SDS011;593;53.184;8.216;2023-07-13T12:21:32;1.87;;;1.13;;
1206;SDS011;593;53.184;8.216;2023-07-13T12:23:59;2.23;;;1.37;;
1206;SDS011;593;53.184;8.216;2023-07-13T12:26:27;2.10;;;1.10;;
1206;SDS011;593;53.184;8.216;2023-07-13T12:28:55;1.57;;;1.30;;
1206;SDS011;593;53.184;8.216;2023-07-13T12:31:35;2.00;;;1.50;;
1206;SDS011;593;53.184;8.216;2023-07-13T12:34:10;1.10;;;1.00;;
1206;SDS011;593;53.184;8.216;2023-07-13T12:36:38;1.20;;;1.00;;
1206;SDS011;593;53.184;8.216;2023-07-13T12:39:15;1.33;;;0.97;;
1206;SDS011;593;53.184;8.216;2023-07-13T12:41:52;1.67;;;0.87;;
1206;SDS011;593;53.184;8.216;2023-07-13T12:44:22;2.97;;;1.27;;
1206;SDS011;593;53.184;8.216;2023-07-13T12:46:56;4.10;;;1.77;;
1206;SDS011;593;53.184;8.216;2023-07-13T12:49:31;1.60;;;1.20;;
1206;SDS011;593;53.184;8.216;2023-07-13T12:52:02;0.90;;;0.90;;
1206;SDS011;593;53.184;8.216;2023-07-13T12:54:29;2.20;;;1.07;;
1206;SDS011;593;53.184;8.216;2023-07-13T12:56:56;1.50;;;1.40;;
1206;SDS011;593;53.184;8.216;2023-07-13T12:59:23;1.63;;;1.53;;
1206;SDS011;593;53.184;8.216;2023-07-13T13:01:54;2.60;;;1.37;;
1206;SDS011;593;53.184;8.216;2023-07-13T13:04:19;1.87;;;1.00;;
1206;SDS011;593;53.184;8.216;2023-07-13T13:06:46;1.37;;;1.23;;
1206;SDS011;593;53.184;8.216;2023-07-13T13:09:13;1.13;;;1.03;;
1206;SDS011;593;53.184;8.216;2023-07-13T13:11:40;1.27;;;1.17;;
1206;SDS011;593;53.184;8.216;2023-07-13T13:14:06;1.50;;;1.27;;
1206;SDS011;593;53.184;8.216;2023-07-13T13:16:33;1.17;;;1.07;;
1206;SDS011;593;53.184;8.216;2023-07-13T13:19:18;1.40;;;1.30;;
1206;SDS011;593;53.184;8.216;2023-07-13T13:21:47;3.67;;;1.13;;
1206;SDS011;593;53.184;8.216;2023-07-13T13:24:13;1.17;;;1.10;;
1206;SDS011;593;53.184;8.216;2023-07-13T13:26:41;1.20;;;1.10;;
1206;SDS011;593;53.184;8.216;2023-07-13T13:29:26;1.30;;;1.20;;
1206;SDS011;593;53.184;8.216;2023-07-13T13:31:52;1.17;;;1.00;;
1206;SDS011;593;53.184;8.216;2023-07-13T13:34:19;1.33;;;1.23;;
1206;SDS011;593;53.184;8.216;2023-07-13T13:36:48;1.83;;;1.00;;
1206;SDS011;593;53.184;8.216;2023-07-13T13:39:21;1.33;;;0.90;;
1206;SDS011;593;53.184;8.216;2023-07-13T13:41:50;1.80;;;1.13;;
1206;SDS011;593;53.184;8.216;2023-07-13T13:44:16;1.67;;;0.90;;
1206;SDS011;593;53.184;8.216;2023-07-13T13:46:44;2.40;;;1.00;;
1206;SDS011;593;53.184;8.216;2023-07-13T13:49:13;1.03;;;0.93;;
1206;SDS011;593;53.184;8.216;2023-07-13T13:51:40;1.13;;;1.03;;
1206;SDS011;593;53.184;8.216;2023-07-13T13:54:09;1.30;;;1.20;;
1206;SDS011;593;53.184;8.216;2023-07-13T13:56:36;1.37;;;1.00;;
1206;SDS011;593;53.184;8.216;2023-07-13T13:59:02;1.37;;;1.27;;
1206;SDS011;593;53.184;8.216;2023-07-13T14:01:27;0.93;;;0.90;;
1206;SDS011;593;53.184;8.216;2023-07-13T14:03:54;1.47;;;0.90;;
1206;SDS011;593;53.184;8.216;2023-07-13T14:06:19;3.20;;;1.30;;
1206;SDS011;593;53.184;8.216;2023-07-13T14:08:45;1.53;;;1.10;;
1206;SDS011;593;53.184;8.216;2023-07-13T14:11:12;1.33;;;1.10;;
1206;SDS011;593;53.184;8.216;2023-07-13T14:13:47;2.07;;;1.33;;
1206;SDS011;593;53.184;8.216;2023-07-13T14:16:18;2.40;;;1.73;;
1206;SDS011;593;53.184;8.216;2023-07-13T14:18:46;2.37;;;2.10;;
1206;SDS011;593;53.184;8.216;2023-07-13T14:21:13;5.20;;;1.90;;
1206;SDS011;593;53.184;8.216;2023-07-13T14:23:39;3.13;;;1.60;;
1206;SDS011;593;53.184;8.216;2023-07-13T14:26:12;4.00;;;1.80;;
1206;SDS011;593;53.184;8.216;2023-07-13T14:28:41;3.00;;;1.40;;
1206;SDS011;593;53.184;8.216;2023-07-13T14:31:08;2.40;;;1.80;;
1206;SDS011;593;53.184;8.216;2023-07-13T14:33:34;3.17;;;1.50;;
1206;SDS011;593;53.184;8.216;2023-07-13T14:35:59;2.50;;;1.50;;
1206;SDS011;593;53.184;8.216;2023-07-13T14:38:24;2.57;;;1.43;;
1206;SDS011;593;53.184;8.216;2023-07-13T14:40:50;2.80;;;1.47;;
1206;SDS011;593;53.184;8.216;2023-07-13T14:43:15;1.80;;;1.70;;
1206;SDS011;593;53.184;8.216;2023-07-13T14:45:46;3.20;;;1.53;;
1206;SDS011;593;53.184;8.216;2023-07-13T14:50:39;1.67;;;1.57;;
1206;SDS011;593;53.184;8.216;2023-07-13T14:53:08;1.97;;;1.87;;
1206;SDS011;593;53.184;8.216;2023-07-13T14:55:35;1.50;;;1.40;;
1206;SDS011;593;53.184;8.216;2023-07-13T14:58:00;2.20;;;1.50;;
1206;SDS011;593;53.184;8.216;2023-07-13T15:00:26;1.80;;;1.20;;
1206;SDS011;593;53.184;8.216;2023-07-13T15:02:53;1.77;;;1.20;;
1206;SDS011;593;53.184;8.216;2023-07-13T15:05:22;2.10;;;1.43;;
1206;SDS011;593;53.184;8.216;2023-07-13T15:07:54;1.90;;;1.50;;
1206;SDS011;593;53.184;8.216;2023-07-13T15:10:23;1.90;;;1.60;;
1206;SDS011;593;53.184;8.216;2023-07-13T15:12:56;2.63;;;2.10;;
1206;SDS011;593;53.184;8.216;2023-07-13T15:15:25;2.63;;;1.70;;
1206;SDS011;593;53.184;8.216;2023-07-13T15:17:51;1.77;;;1.67;;
1206;SDS011;593;53.184;8.216;2023-07-13T15:22:53;2.17;;;1.47;;
1206;SDS011;593;53.184;8.216;2023-07-13T15:25:20;2.73;;;1.57;;
1206;SDS011;593;53.184;8.216;2023-07-13T15:27:48;1.50;;;1.13;;
1206;SDS011;593;53.184;8.216;2023-07-13T15:30:14;1.80;;;1.37;;
1206;SDS011;593;53.184;8.216;2023-07-13T15:32:40;2.33;;;2.17;;
1206;SDS011;593;53.184;8.216;2023-07-13T15:35:13;1.57;;;1.20;;
1206;SDS011;593;53.184;8.216;2023-07-13T15:37:43;1.83;;;1.30;;
1206;SDS011;593;53.184;8.216;2023-07-13T15:40:09;3.13;;;1.50;;
1206;SDS011;593;53.184;8.216;2023-07-13T15:42:36;1.37;;;1.27;;
1206;SDS011;593;53.184;8.216;2023-07-13T15:45:04;1.77;;;1.37;;
1206;SDS011;593;53.184;8.216;2023-07-13T15:47:31;1.50;;;1.10;;
1206;SDS011;593;53.184;8.216;2023-07-13T15:49:57;1.67;;;1.40;;
1206;SDS011;593;53.184;8.216;2023-07-13T15:52:23;2.70;;;1.20;;
1206;SDS011;593;53.184;8.216;2023-07-13T15:54:49;1.30;;;1.20;;
1206;SDS011;593;53.184;8.216;2023-07-13T15:57:15;1.20;;;1.10;;
1206;SDS011;593;53.184;8.216;2023-07-13T15:59:41;1.77;;;1.27;;
1206;SDS011;593;53.184;8.216;2023-07-13T16:02:16;2.10;;;1.27;;
1206;SDS011;593;53.184;8.216;2023-07-13T16:04:43;1.70;;;1.00;;
1206;SDS011;593;53.184;8.216;2023-07-13T16:07:10;1.13;;;0.90;;
1206;SDS011;593;53.184;8.216;2023-07-13T16:09:36;1.67;;;0.90;;
1206;SDS011;593;53.184;8.216;2023-07-13T16:12:04;1.53;;;1.00;;
1206;SDS011;593;53.184;8.216;2023-07-13T16:14:36;2.00;;;1.10;;
1206;SDS011;593;53.184;8.216;2023-07-13T16:17:01;1.53;;;1.00;;
1206;SDS011;593;53.184;8.216;2023-07-13T16:19:27;1.87;;;0.90;;
1206;SDS011;593;53.184;8.216;2023-07-13T16:21:54;2.70;;;1.20;;
1206;SDS011;593;53.184;8.216;2023-07-13T16:24:21;2.10;;;1.23;;
1206;SDS011;593;53.184;8.216;2023-07-13T16:26:49;2.97;;;1.20;;
1206;SDS011;593;53.184;8.216;2023-07-13T16:29:16;0.97;;;0.80;;